Time;durP1;ratioP1;P1;durP2;ratioP2;P2;SDS_P1;SDS_P2;PMS_P1;PMS_P2;Temp;Humidity;BMP_temperature;BMP_pressure;BME280_temperature;BME280_humidity;BME280_pressure;Samples;Min_cycle;Max_cycle;Signal;HPM_P1;HPM_P2
2022/10/07 00:01:46;;;;;;;20.15;11.35;;;;;;;11.43;65.15;101729.03;4979898;28;97000;-82
2022/10/07 00:04:12;;;;;;;18.60;11.15;;;;;;;11.31;65.07;101711.69;4993615;28;98375;-82
2022/10/07 00:06:37;;;;;;;26.02;12.45;;;;;;;11.40;64.80;101726.41;4980666;28;101496;-84
2022/10/07 00:09:03;;;;;;;22.90;11.05;;;;;;;11.30;65.20;101717.81;4993734;27;98373;-83
2022/10/07 00:11:29;;;;;;;21.00;12.82;;;;;;;11.48;65.01;101728.94;4969609;28;97881;-84
2022/10/07 00:14:03;;;;;;;18.70;11.00;;;;;;;11.57;64.72;101732.28;4978468;28;97131;-83
2022/10/07 00:16:32;;;;;;;20.13;12.32;;;;;;;11.59;64.50;101734.91;4994052;28;101167;-84
2022/10/07 00:19:00;;;;;;;23.02;13.45;;;;;;;11.47;65.05;101735.09;5014585;28;101323;-85
2022/10/07 00:21:29;;;;;;;21.90;12.50;;;;;;;11.52;64.68;101725.38;4977308;28;97169;-83
2022/10/07 00:23:54;;;;;;;21.25;12.07;;;;;;;11.53;64.77;101727.97;5013363;28;96860;-84
2022/10/07 00:26:23;;;;;;;23.38;11.48;;;;;;;11.55;64.54;101725.34;4996129;28;100464;-83
2022/10/07 00:28:49;;;;;;;19.20;11.30;;;;;;;11.57;63.91;101721.75;4992327;28;98409;-84
2022/10/07 00:31:18;;;;;;;19.05;11.50;;;;;;;11.54;64.22;101713.94;4996591;28;96729;-83
2022/10/07 00:33:44;;;;;;;22.05;11.75;;;;;;;11.55;64.02;101720.94;4997954;28;97146;-85
2022/10/07 00:36:19;;;;;;;21.10;11.93;;;;;;;11.50;64.20;101714.03;4980721;28;101206;-81
2022/10/07 00:38:49;;;;;;;19.98;11.23;;;;;;;11.39;64.06;101706.28;4970557;28;101555;-84
2022/10/07 00:41:25;;;;;;;20.95;11.63;;;;;;;11.50;64.04;101714.03;5014210;28;96713;-84
2022/10/07 00:43:51;;;;;;;18.08;10.80;;;;;;;11.50;64.00;101714.88;4973396;28;97143;-84
2022/10/07 00:46:35;;;;;;;19.60;11.05;;;;;;;11.48;63.58;101706.13;4983418;27;101318;-83
2022/10/07 00:49:04;;;;;;;21.33;11.23;;;;;;;11.44;64.07;101712.34;4978051;28;101445;-84
2022/10/07 00:51:31;;;;;;;20.33;12.25;;;;;;;11.36;63.69;101703.72;5003495;28;97135;-84
2022/10/07 00:53:57;;;;;;;22.73;11.50;;;;;;;11.23;63.91;101699.53;4995326;28;96964;-84
2022/10/07 00:56:24;;;;;;;18.85;10.57;;;;;;;11.14;64.13;101673.38;4980047;28;101721;-84
2022/10/07 00:58:51;;;;;;;19.83;10.88;;;;;;;11.27;64.27;101703.84;4970489;28;101421;-83
2022/10/07 01:01:18;;;;;;;15.35;10.43;;;;;;;11.26;64.48;101699.50;4998711;28;96763;-83
2022/10/07 01:03:45;;;;;;;17.95;9.90;;;;;;;11.23;64.16;101710.91;4991551;28;97369;-84
2022/10/07 01:06:11;;;;;;;19.35;10.05;;;;;;;11.22;64.59;101701.28;4991842;28;101171;-84
2022/10/07 01:08:39;;;;;;;16.67;9.27;;;;;;;11.17;64.42;101700.50;4980071;28;100762;-83
2022/10/07 01:11:12;;;;;;;14.80;9.35;;;;;;;11.20;63.99;101702.19;4980354;28;96972;-83
2022/10/07 01:13:55;;;;;;;19.42;9.63;;;;;;;11.15;64.48;101702.28;5031959;28;96992;-84
2022/10/07 01:16:46;;;;;;;16.35;9.23;;;;;;;11.12;64.29;101699.69;4994404;28;101675;-83
2022/10/07 01:19:25;;;;;;;15.35;9.40;;;;;;;11.10;64.06;101699.69;4999732;28;100223;-84
2022/10/07 01:22:21;;;;;;;15.90;9.57;;;;;;;11.06;64.42;101687.50;4995922;28;97104;-84
2022/10/07 01:25:01;;;;;;;17.08;8.95;;;;;;;11.08;64.41;101688.38;4997511;28;96855;-84
2022/10/07 01:27:28;;;;;;;16.05;9.65;;;;;;;10.88;64.14;101656.25;5030988;28;98547;-85
2022/10/07 01:30:04;;;;;;;16.33;9.40;;;;;;;10.94;64.11;101674.56;4987729;28;98133;-84
2022/10/07 01:32:43;;;;;;;20.55;9.27;;;;;;;11.02;64.38;101680.53;4977151;28;96793;-84
2022/10/07 01:35:15;;;;;;;16.02;9.07;;;;;;;10.90;64.25;101659.69;4985632;28;97424;-83
2022/10/07 01:37:45;;;;;;;17.95;9.63;;;;;;;10.78;64.72;101683.53;5011932;28;98066;-84
2022/10/07 01:40:17;;;;;;;14.95;8.98;;;;;;;10.77;64.90;101661.66;4983877;28;101747;-84
2022/10/07 01:42:44;;;;;;;16.67;9.52;;;;;;;10.91;64.18;101676.31;4992719;28;97160;-84
2022/10/07 01:45:14;;;;;;;13.98;9.27;;;;;;;10.89;64.14;101673.75;4993778;28;96932;-84
2022/10/07 01:47:39;;;;;;;15.75;8.55;;;;;;;10.80;64.34;101668.63;4993220;28;101165;-84
2022/10/07 01:50:11;;;;;;;18.05;9.70;;;;;;;10.84;64.26;101670.31;4973847;28;101714;-83
2022/10/07 01:52:58;;;;;;;15.07;10.30;;;;;;;10.83;64.39;101671.19;4983334;28;97143;-84
2022/10/07 01:55:27;;;;;;;15.82;10.30;;;;;;;10.80;64.56;101666.00;4986161;28;97090;-84
2022/10/07 01:58:08;;;;;;;16.05;9.85;;;;;;;10.75;64.12;101659.94;5007316;28;98492;-84
2022/10/07 02:00:37;;;;;;;17.27;10.23;;;;;;;10.58;64.38;101632.13;5008282;28;98251;-82
2022/10/07 02:03:38;;;;;;;17.55;10.02;;;;;;;10.71;64.54;101653.84;4990954;28;97357;-84
2022/10/07 02:06:09;;;;;;;18.65;10.70;;;;;;;10.73;64.31;101646.78;4987673;28;97136;-84
2022/10/07 02:08:39;;;;;;;19.30;10.30;;;;;;;10.62;63.88;101641.72;5011326;27;99796;-83
2022/10/07 02:11:19;;;;;;;16.80;9.75;;;;;;;10.59;63.90;101635.63;4978175;28;101304;-84
2022/10/07 02:14:00;;;;;;;18.13;10.00;;;;;;;10.63;64.03;101650.44;4993132;28;97909;-84
2022/10/07 02:16:34;;;;;;;18.00;10.25;;;;;;;10.64;64.23;101641.66;4996573;28;97155;-84
2022/10/07 02:19:04;;;;;;;16.33;9.77;;;;;;;10.66;64.05;101645.16;4997202;28;101480;-84
2022/10/07 02:21:33;;;;;;;14.32;10.10;;;;;;;10.57;64.36;101625.13;4988502;28;101502;-84
2022/10/07 02:23:59;;;;;;;16.15;10.18;;;;;;;10.60;64.18;101646.09;4995906;28;97280;-84
2022/10/07 02:26:27;;;;;;;18.80;10.65;;;;;;;10.42;64.07;101628.84;4991292;28;97097;-83
2022/10/07 02:28:54;;;;;;;17.58;10.70;;;;;;;10.43;64.50;101629.69;4984698;28;101196;-84
2022/10/07 02:31:23;;;;;;;17.55;10.05;;;;;;;10.48;64.64;101640.16;4993488;28;101571;-83
2022/10/07 02:33:52;;;;;;;17.88;9.93;;;;;;;10.47;64.25;101635.78;5015081;28;97396;-84
2022/10/07 02:36:25;;;;;;;16.88;10.73;;;;;;;10.52;64.22;101637.44;5034496;28;97137;-84
2022/10/07 02:38:51;;;;;;;18.55;10.23;;;;;;;10.43;64.32;101625.31;4982520;28;101015;-84
2022/10/07 02:41:34;;;;;;;14.85;9.90;;;;;;;10.48;64.31;101633.16;4996494;28;101709;-83
2022/10/07 02:44:24;;;;;;;21.05;9.70;;;;;;;10.36;64.35;101623.66;4978122;28;97228;-84
2022/10/07 02:46:55;;;;;;;18.40;9.68;;;;;;;10.34;64.75;101620.19;4994663;28;96957;-84
2022/10/07 02:49:22;;;;;;;17.60;10.13;;;;;;;10.32;65.03;101624.56;4978532;28;99825;-83
2022/10/07 02:51:55;;;;;;;18.50;9.88;;;;;;;10.32;64.37;101624.56;4996119;28;98489;-84
2022/10/07 02:54:24;;;;;;;18.95;10.18;;;;;;;10.33;64.66;101625.47;4998464;28;96823;-83
2022/10/07 02:56:51;;;;;;;17.85;9.93;;;;;;;10.32;64.07;101623.72;4979549;28;97075;-84
2022/10/07 02:59:18;;;;;;;20.27;11.23;;;;;;;10.20;64.41;101622.06;4998696;28;101151;-84
2022/10/07 03:01:47;;;;;;;18.55;10.75;;;;;;;10.22;64.21;101619.44;4981696;28;100175;-84
2022/10/07 03:04:13;;;;;;;18.23;10.85;;;;;;;10.16;64.52;101617.75;4977826;27;97575;-84
2022/10/07 03:06:41;;;;;;;21.38;10.10;;;;;;;10.12;64.83;101613.41;4998411;28;97111;-85
2022/10/07 03:09:08;;;;;;;18.55;9.73;;;;;;;10.14;64.71;101609.03;4992622;28;101556;-83
2022/10/07 03:11:35;;;;;;;17.30;9.40;;;;;;;10.15;65.03;101610.75;4991650;28;101333;-85
2022/10/07 03:14:03;;;;;;;21.73;11.00;;;;;;;10.17;64.72;101616.84;4979356;28;97947;-83
2022/10/07 03:16:28;;;;;;;18.83;10.75;;;;;;;10.05;64.38;101607.38;4987058;28;96863;-84
2022/10/07 03:18:54;;;;;;;17.13;9.88;;;;;;;9.95;65.23;101609.25;4982710;28;101826;-84
2022/10/07 03:21:24;;;;;;;17.23;10.25;;;;;;;10.02;64.58;101609.19;4979785;27;101462;-84
2022/10/07 03:23:53;;;;;;;19.02;10.77;;;;;;;9.98;64.50;101606.59;4990157;28;97016;-83
2022/10/07 03:26:21;;;;;;;17.13;10.68;;;;;;;9.93;64.72;101591.78;4992420;28;97140;-83
2022/10/07 03:28:47;;;;;;;22.77;10.63;;;;;;;10.06;64.59;101601.22;4979294;28;101000;-84
2022/10/07 03:31:14;;;;;;;18.55;10.43;;;;;;;10.07;64.85;101604.75;4990986;28;100907;-84
2022/10/07 03:33:45;;;;;;;22.40;10.60;;;;;;;9.95;65.49;101600.50;4983685;28;96831;-84
2022/10/07 03:36:11;;;;;;;19.33;11.13;;;;;;;9.96;65.46;101600.47;4993493;28;96812;-84
2022/10/07 03:38:39;;;;;;;15.98;10.60;;;;;;;9.95;65.29;101603.13;4994881;28;102025;-84
2022/10/07 03:41:06;;;;;;;16.10;9.52;;;;;;;9.90;65.39;101597.94;4989244;27;101197;-84
2022/10/07 03:43:32;;;;;;;17.48;9.90;;;;;;;9.97;65.69;101598.72;4993561;28;97280;-84
2022/10/07 03:46:01;;;;;;;17.77;9.57;;;;;;;9.97;65.07;101590.84;4979942;28;97171;-84
2022/10/07 03:48:30;;;;;;;22.98;10.57;;;;;;;9.96;65.39;101597.00;4978841;28;101497;-82
2022/10/07 03:50:56;;;;;;;23.27;9.77;;;;;;;9.94;65.38;101589.13;4977607;28;101424;-82
2022/10/07 03:53:27;;;;;;;22.58;9.77;;;;;;;9.91;65.25;101583.06;4982191;28;96708;-81
2022/10/07 03:55:53;;;;;;;20.08;10.05;;;;;;;9.81;65.22;101574.44;4996902;28;96839;-82
2022/10/07 03:58:19;;;;;;;15.70;8.98;;;;;;;9.90;65.29;101583.94;4992077;28;101272;-82
2022/10/07 04:00:46;;;;;;;19.98;9.88;;;;;;;9.86;65.54;101584.84;4989630;28;101408;-82
2022/10/07 04:03:14;;;;;;;15.90;9.93;;;;;;;9.86;64.73;101580.50;4977839;28;97038;-82
2022/10/07 04:05:40;;;;;;;17.73;9.05;;;;;;;9.71;65.42;101555.28;4986133;28;96857;-82
2022/10/07 04:08:06;;;;;;;15.45;10.15;;;;;;;9.78;65.56;101584.09;4979395;28;101376;-82
2022/10/07 04:10:33;;;;;;;21.35;9.40;;;;;;;9.64;65.50;101553.63;4995826;27;101826;-82
2022/10/07 04:12:59;;;;;;;15.65;9.70;;;;;;;9.72;65.72;101564.03;5007269;27;98262;-82
2022/10/07 04:15:25;;;;;;;18.65;9.70;;;;;;;9.78;65.53;101566.59;4976708;28;97941;-81
2022/10/07 04:17:56;;;;;;;18.38;9.88;;;;;;;9.74;65.67;101570.13;4982773;28;100741;-82
2022/10/07 04:20:22;;;;;;;26.20;10.53;;;;;;;9.61;65.92;101543.19;4987899;28;100892;-82
2022/10/07 04:22:47;;;;;;;19.25;9.48;;;;;;;9.64;65.38;101551.00;4997932;28;96704;-82
2022/10/07 04:28:07;;;;;;;16.70;10.18;;;;;;;9.52;66.15;101541.53;4984489;28;101849;-82
2022/10/07 04:30:38;;;;;;;24.73;10.13;;;;;;;9.67;65.46;101560.59;4976283;27;101653;-81
2022/10/07 04:33:05;;;;;;;14.18;9.15;;;;;;;9.64;65.75;101555.38;4977244;28;96761;-81
2022/10/07 04:35:31;;;;;;;15.10;9.55;;;;;;;9.61;65.82;101558.03;4976189;28;97137;-81
2022/10/07 04:37:57;;;;;;;21.25;10.05;;;;;;;9.54;65.80;101554.63;5000396;28;101417;-85
2022/10/07 04:40:26;;;;;;;24.80;10.30;;;;;;;9.53;66.02;101545.00;4992986;28;101098;-83
2022/10/07 04:45:37;;;;;;;14.48;8.30;;;;;;;9.53;66.74;101545.00;4986041;27;96862;-85
2022/10/07 04:48:05;;;;;;;14.63;8.88;;;;;;;9.48;66.51;101552.94;4990698;28;101662;-84
2022/10/07 04:50:32;;;;;;;17.60;9.38;;;;;;;9.44;66.54;101552.97;4995311;28;100917;-85
2022/10/07 04:52:58;;;;;;;20.33;10.48;;;;;;;9.36;66.67;101547.78;4971687;28;97051;-85
2022/10/07 04:55:28;;;;;;;16.45;10.20;;;;;;;9.34;66.97;101548.69;4978327;28;96910;-83
2022/10/07 04:57:53;;;;;;;14.48;9.00;;;;;;;9.37;66.96;101552.16;4994425;28;100706;-85
2022/10/07 05:00:19;;;;;;;14.73;9.20;;;;;;;9.32;66.88;101542.59;4993092;28;101255;-84
2022/10/07 05:02:49;;;;;;;19.40;10.13;;;;;;;9.32;66.74;101553.09;4977354;28;96925;-85
2022/10/07 05:05:16;;;;;;;16.38;9.68;;;;;;;9.27;66.89;101553.97;4980829;28;97607;-90
2022/10/07 05:07:42;;;;;;;14.70;9.73;;;;;;;9.24;67.29;101555.75;4977759;28;101418;-91
2022/10/07 05:10:09;;;;;;;18.80;9.63;;;;;;;9.27;67.07;101548.75;4977149;28;100244;-89
2022/10/07 05:12:36;;;;;;;21.88;10.15;;;;;;;9.25;66.86;101547.00;4982623;28;97026;-91
2022/10/07 05:15:03;;;;;;;28.35;10.35;;;;;;;9.16;66.96;101541.84;4980419;28;96898;-92
2022/10/07 05:17:29;;;;;;;18.30;9.95;;;;;;;9.18;67.25;101551.44;5000747;27;99537;-91
2022/10/07 05:19:55;;;;;;;18.83;10.90;;;;;;;9.15;67.19;101530.50;4981076;28;101377;-91
2022/10/07 05:22:21;;;;;;;22.40;10.27;;;;;;;9.25;66.50;101545.28;4977764;28;97386;-92
2022/10/07 05:24:46;;;;;;;22.52;10.57;;;;;;;9.20;66.69;101536.59;4980527;28;97199;-90
2022/10/07 05:27:13;;;;;;;19.60;9.73;;;;;;;9.20;66.83;101536.59;4986944;28;99811;-90
2022/10/07 05:29:39;;;;;;;19.58;11.13;;;;;;;9.18;67.35;101527.88;4974648;28;101246;-93
2022/10/07 05:32:04;;;;;;;22.58;9.98;;;;;;;9.22;67.07;101539.19;4995654;28;97191;-93
2022/10/07 05:34:31;;;;;;;21.90;10.48;;;;;;;9.18;67.17;101532.25;4972108;28;96910;-93
2022/10/07 05:36:58;;;;;;;19.38;10.75;;;;;;;9.25;67.24;101540.03;4984186;28;101646;-90
2022/10/07 05:39:24;;;;;;;22.65;10.35;;;;;;;8.97;67.17;101480.94;4972319;27;100521;-91
2022/10/07 05:42:15;;;;;;;23.38;10.80;;;;;;;9.32;67.31;101538.22;5004490;27;97515;-85
2022/10/07 05:44:49;;;;;;;22.50;10.52;;;;;;;9.33;67.67;101546.94;4979419;28;97384;-83
2022/10/07 05:47:14;;;;;;;20.50;10.35;;;;;;;9.28;67.52;101526.06;5003102;28;100477;-85
2022/10/07 05:49:40;;;;;;;19.40;9.35;;;;;;;9.41;67.63;101539.88;4967776;28;99821;-87
2022/10/07 05:52:06;;;;;;;17.80;9.88;;;;;;;9.58;67.52;101526.63;4974565;28;96734;-87
2022/10/07 05:54:33;;;;;;;18.10;10.70;;;;;;;9.86;66.96;101527.16;4974450;28;96807;-88
2022/10/07 05:56:59;;;;;;;20.60;9.48;;;;;;;10.12;66.25;101516.34;4991808;28;101781;-87
2022/10/07 05:59:24;;;;;;;17.15;10.20;;;;;;;10.27;66.03;101489.03;4999357;28;100494;-87
2022/10/07 06:01:52;;;;;;;20.92;10.60;;;;;;;10.43;65.18;101503.69;4981510;28;97014;-87
2022/10/07 06:04:19;;;;;;;21.98;10.52;;;;;;;10.73;64.74;101504.13;4992608;28;97406;-87
2022/10/07 06:06:47;;;;;;;23.33;10.90;;;;;;;11.04;63.82;101505.34;4974472;27;100453;-89
2022/10/07 06:14:48;;;;;;;20.45;10.23;;;;;;;11.42;63.13;101519.56;5008572;27;97224;-88
2022/10/07 06:17:15;;;;;;;18.73;10.27;;;;;;;11.69;62.72;101505.03;4994359;28;100753;-87
2022/10/07 06:19:43;;;;;;;16.40;10.43;;;;;;;11.72;62.62;101517.25;4979259;27;100947;-87
2022/10/07 06:22:10;;;;;;;18.30;9.80;;;;;;;11.87;62.00;101495.03;4977102;28;96897;-86
2022/10/07 06:24:37;;;;;;;14.85;10.70;;;;;;;12.15;61.78;101509.34;4987762;28;96948;-86
2022/10/07 06:27:02;;;;;;;20.88;10.52;;;;;;;12.37;61.82;101515.03;4974941;28;101371;-87
2022/10/07 06:29:29;;;;;;;18.85;9.80;;;;;;;12.35;60.49;101508.91;4973778;28;101646;-87
2022/10/07 06:31:55;;;;;;;18.95;10.15;;;;;;;12.28;61.27;101475.75;5005161;28;96734;-86
2022/10/07 06:34:21;;;;;;;14.23;9.13;;;;;;;12.58;61.12;101497.00;5003237;28;96947;-87
2022/10/07 06:36:46;;;;;;;17.42;10.15;;;;;;;12.68;60.99;101503.75;4998303;28;98926;-86
2022/10/07 06:39:15;;;;;;;17.38;10.52;;;;;;;12.94;60.51;101503.13;4976136;27;101629;-88
2022/10/07 06:41:42;;;;;;;19.70;10.15;;;;;;;13.10;59.67;101508.88;4994683;28;97788;-84
2022/10/07 06:44:22;;;;;;;18.90;10.52;;;;;;;13.06;61.01;101500.19;4971359;28;97214;-85
2022/10/07 06:46:50;;;;;;;15.63;11.10;;;;;;;13.19;60.20;101511.28;5011093;28;98372;-86
2022/10/07 06:49:17;;;;;;;20.38;10.68;;;;;;;13.31;59.69;101513.63;4977447;27;99333;-88
2022/10/07 06:51:42;;;;;;;17.33;10.95;;;;;;;13.52;58.95;101483.16;4982781;28;97599;-86
2022/10/07 06:54:08;;;;;;;14.38;9.40;;;;;;;13.82;58.39;101496.41;4996437;28;97201;-86
2022/10/07 06:56:34;;;;;;;15.75;10.75;;;;;;;14.17;57.57;101511.22;4971157;28;98551;-87
2022/10/07 06:59:02;;;;;;;15.25;9.88;;;;;;;14.19;57.85;101503.22;4985707;28;101931;-86
2022/10/07 07:01:41;;;;;;;22.85;10.38;;;;;;;14.40;57.58;101504.38;4976616;28;96943;-86
2022/10/07 07:04:07;;;;;;;15.35;11.02;;;;;;;14.67;56.85;101508.78;4982694;27;96891;-87
2022/10/07 07:06:37;;;;;;;17.92;10.05;;;;;;;14.82;56.38;101504.78;4975330;28;99821;-87
2022/10/07 07:09:04;;;;;;;18.52;9.73;;;;;;;15.12;56.29;101510.81;4980713;28;101584;-88
2022/10/07 07:11:35;;;;;;;15.73;10.90;;;;;;;15.14;55.89;101498.41;4983883;28;98303;-88
2022/10/07 07:14:08;;;;;;;15.70;10.43;;;;;;;15.56;55.11;101505.78;4986145;27;98040;-87
2022/10/07 07:16:36;;;;;;;20.58;11.13;;;;;;;15.82;54.63;101496.03;4994012;28;101483;-89
2022/10/07 07:19:06;;;;;;;17.40;10.77;;;;;;;15.80;53.84;101476.72;4994468;28;100692;-86
2022/10/07 07:21:34;;;;;;;19.92;11.88;;;;;;;16.01;53.33;101490.91;4976198;28;97236;-88
2022/10/07 07:24:01;;;;;;;16.33;10.75;;;;;;;16.19;53.46;101468.16;4985640;27;97026;-87
2022/10/07 07:26:28;;;;;;;16.52;10.38;;;;;;;16.51;53.94;101482.75;4980470;28;100114;-81
2022/10/07 07:28:57;;;;;;;19.10;9.63;;;;;;;16.80;53.67;101470.13;4968618;28;101769;-81
2022/10/07 07:31:27;;;;;;;20.77;10.48;;;;;;;17.28;52.20;101477.78;4991853;28;98230;-85
2022/10/07 07:33:54;;;;;;;19.08;9.55;;;;;;;17.45;51.39;101460.25;4972409;28;97068;-86
2022/10/07 07:36:22;;;;;;;21.50;10.18;;;;;;;17.71;51.47;101470.53;4995032;28;101630;-83
2022/10/07 07:38:55;;;;;;;14.40;9.02;;;;;;;17.61;51.13;101464.81;4975656;28;101461;-85
2022/10/07 07:41:25;;;;;;;17.38;10.07;;;;;;;17.95;51.05;101467.72;4985882;27;97050;-91
2022/10/07 07:43:52;;;;;;;17.92;8.80;;;;;;;18.10;50.44;101469.69;4990786;28;97378;-88
2022/10/07 07:46:20;;;;;;;24.38;9.10;;;;;;;18.04;50.73;101454.03;4993708;28;100486;-89
2022/10/07 07:48:48;;;;;;;19.77;9.13;;;;;;;18.41;49.95;101458.41;4987335;28;100276;-89
2022/10/07 07:51:16;;;;;;;14.30;8.75;;;;;;;18.75;49.68;101457.66;4997143;28;97428;-87
2022/10/07 07:53:43;;;;;;;20.50;9.23;;;;;;;19.00;49.39;101443.97;4983828;28;97062;-85
2022/10/07 07:56:10;;;;;;;14.05;8.40;;;;;;;19.37;49.06;101449.16;4982452;28;101553;-88
2022/10/07 07:58:36;;;;;;;15.15;8.70;;;;;;;18.95;49.10;101451.31;4979957;28;100230;-89
2022/10/07 08:01:04;;;;;;;13.07;8.63;;;;;;;19.28;48.66;101415.03;4993094;28;98531;-88
2022/10/07 08:03:32;;;;;;;15.02;8.07;;;;;;;19.53;48.43;101442.06;4994215;28;97404;-89
2022/10/07 08:06:01;;;;;;;16.25;8.88;;;;;;;19.72;48.59;101428.63;4975950;28;101439;-89
2022/10/07 08:08:28;;;;;;;11.82;7.47;;;;;;;20.25;48.11;101437.28;4989203;27;100994;-88
2022/10/07 08:10:55;;;;;;;11.32;6.53;;;;;;;20.11;47.13;101422.06;4998616;28;97505;-90
2022/10/07 08:13:20;;;;;;;12.75;5.75;;;;;;;20.51;47.27;101420.63;4980451;28;97274;-90
2022/10/07 08:15:46;;;;;;;10.52;6.50;;;;;;;20.92;46.73;101428.03;4976506;28;101549;-88
2022/10/07 08:18:12;;;;;;;10.95;6.25;;;;;;;20.99;45.97;101413.34;4975271;27;100545;-89
2022/10/07 08:20:38;;;;;;;14.73;6.38;;;;;;;21.25;45.82;101394.88;4990616;28;96866;-91
2022/10/07 08:23:05;;;;;;;10.13;5.50;;;;;;;21.37;45.50;101399.47;4988588;28;97463;-89
2022/10/07 08:25:31;;;;;;;9.63;6.10;;;;;;;21.94;44.91;101401.25;4990753;28;101637;-89
2022/10/07 08:28:00;;;;;;;8.70;5.20;;;;;;;22.79;43.47;101394.69;4983569;28;100003;-90
2022/10/07 08:30:26;;;;;;;10.00;5.63;;;;;;;23.95;40.73;101390.97;5003105;28;97264;-89
2022/10/07 08:32:52;;;;;;;13.65;6.18;;;;;;;24.55;39.74;101383.84;4994008;28;96847;-89
2022/10/07 08:35:18;;;;;;;14.63;5.78;;;;;;;25.37;38.24;101381.09;4992114;28;100594;-89
2022/10/07 08:37:43;;;;;;;9.90;5.22;;;;;;;25.88;37.16;101377.00;5004015;28;97585;-89
2022/10/07 08:40:14;;;;;;;8.00;5.28;;;;;;;26.43;36.93;101380.47;4993636;28;97093;-87
2022/10/07 08:42:40;;;;;;;;;;;;;;;25.77;37.27;101374.31;4989322;28;96752;-89
2022/10/07 08:45:10;;;;;;;9.10;5.10;;;;;;;24.72;39.03;101374.47;5011052;28;98126;-88
2022/10/07 08:47:42;;;;;;;9.18;5.80;;;;;;;24.58;39.54;101364.84;5008910;28;98259;-86
2022/10/07 08:50:17;;;;;;;12.43;6.13;;;;;;;24.20;39.92;101375.72;5002526;28;97292;-89
2022/10/07 08:52:58;;;;;;;8.70;5.22;;;;;;;22.43;43.42;101365.94;5010167;28;96986;-88
2022/10/07 08:55:45;;;;;;;12.63;5.00;;;;;;;22.75;43.32;101366.44;5006307;28;98224;-89
2022/10/07 08:58:14;;;;;;;12.40;5.75;;;;;;;23.04;43.35;101372.47;4997295;27;101565;-86
2022/10/07 09:01:00;;;;;;;9.02;5.22;;;;;;;23.48;42.33;101355.06;5009518;27;96870;-88
2022/10/07 09:03:35;;;;;;;10.38;4.50;;;;;;;23.09;42.77;101356.06;4989376;28;96821;-87
2022/10/07 09:06:06;;;;;;;6.75;4.38;;;;;;;23.46;42.30;101356.13;5003583;28;100392;-87
2022/10/07 09:08:39;;;;;;;11.85;5.82;;;;;;;23.57;42.30;101340.13;4978929;27;100718;-87
2022/10/07 09:11:14;;;;;;;8.80;4.22;;;;;;;23.06;42.76;101356.28;5010358;28;97165;-87
2022/10/07 09:13:50;;;;;;;10.52;4.22;;;;;;;23.21;42.91;101343.63;4982192;27;97709;-88
2022/10/07 09:16:22;;;;;;;7.95;4.22;;;;;;;22.47;44.41;101345.19;5007357;28;100162;-88
2022/10/07 09:18:52;;;;;;;10.75;4.43;;;;;;;22.23;44.63;101339.69;4983912;28;99914;-88
2022/10/07 09:21:32;;;;;;;5.90;3.78;;;;;;;22.76;44.04;101337.84;4984061;28;96798;-88
2022/10/07 09:24:22;;;;;;;9.77;4.45;;;;;;;22.42;44.86;101339.28;4991169;28;96767;-89
2022/10/07 09:26:47;;;;;;;6.22;4.10;;;;;;;21.48;45.98;101324.03;4990694;27;101421;-88
2022/10/07 09:29:16;;;;;;;20.20;5.53;;;;;;;21.46;46.91;101329.47;4981920;28;101533;-89
2022/10/07 09:31:42;;;;;;;15.82;5.18;;;;;;;21.74;46.88;101310.81;4978939;27;97016;-90
2022/10/07 09:34:18;;;;;;;10.00;4.38;;;;;;;20.74;48.39;101309.03;4973383;28;97004;-91
2022/10/07 09:37:22;;;;;;;5.90;4.53;;;;;;;22.11;45.78;101323.47;4993003;28;100914;-88
2022/10/07 09:39:50;;;;;;;8.48;4.05;;;;;;;23.08;44.25;101318.69;5005042;27;98094;-87
2022/10/07 09:42:30;;;;;;;11.93;4.45;;;;;;;22.11;45.37;101314.59;4966371;27;97968;-88
2022/10/07 09:44:59;;;;;;;8.53;4.90;;;;;;;22.80;44.15;101315.25;4988103;28;97413;-87
2022/10/07 09:47:27;;;;;;;8.38;4.18;;;;;;;23.18;43.92;101309.88;4982085;28;100101;-88
2022/10/07 09:49:58;;;;;;;7.95;4.57;;;;;;;24.06;42.10;101288.28;4976357;28;100319;-88
2022/10/07 09:52:31;;;;;;;8.35;4.63;;;;;;;23.64;42.80;101295.84;4992389;27;97608;-86
2022/10/07 09:55:36;;;;;;;6.90;3.85;;;;;;;23.42;43.58;101291.22;4996117;28;97422;-85
2022/10/07 09:58:05;;;;;;;10.15;4.65;;;;;;;23.11;44.27;101281.84;4991603;28;98009;-88
2022/10/07 10:00:40;;;;;;;6.50;3.33;;;;;;;22.70;44.80;101290.94;4970331;27;101592;-88
2022/10/07 10:03:06;;;;;;;7.63;3.67;;;;;;;23.31;44.01;101277.72;4991902;28;97372;-88
2022/10/07 10:05:33;;;;;;;8.55;3.95;;;;;;;23.82;43.27;101277.56;4980418;28;96973;-88
2022/10/07 10:08:06;;;;;;;7.10;3.80;;;;;;;24.01;43.30;101263.63;4995823;28;100196;-88
2022/10/07 10:10:33;;;;;;;8.25;4.50;;;;;;;23.91;42.52;101270.66;4999422;27;100761;-90
2022/10/07 10:13:00;;;;;;;5.30;3.67;;;;;;;23.86;42.78;101254.94;5003530;28;97418;-90
2022/10/07 10:15:34;;;;;;;7.85;3.95;;;;;;;23.70;42.92;101262.41;4992643;27;97656;-87
2022/10/07 10:17:59;;;;;;;8.15;3.90;;;;;;;23.62;43.02;101278.16;5010454;28;101734;-87
2022/10/07 10:20:27;;;;;;;8.77;3.42;;;;;;;23.59;43.58;101271.22;4999315;27;97350;-86
2022/10/07 10:22:53;;;;;;;10.95;5.78;;;;;;;22.94;44.08;101269.63;4989230;28;97333;-88
2022/10/07 10:28:13;;;;;;;11.05;4.20;;;;;;;21.96;46.92;101254.97;5021810;27;98310;-88
2022/10/07 10:30:49;;;;;;;7.72;4.93;;;;;;;22.46;45.90;101247.19;4995448;27;100240;-82
2022/10/07 10:33:14;;;;;;;6.78;4.47;;;;;;;21.85;47.36;101223.63;4999998;27;97277;-88
2022/10/07 10:35:59;;;;;;;10.40;4.78;;;;;;;21.76;47.74;101237.63;5004036;28;97832;-91
2022/10/07 10:39:00;;;;;;;6.95;3.83;;;;;;;22.07;47.36;101236.38;4980481;27;100350;-88
2022/10/07 10:41:45;;;;;;;6.47;3.80;;;;;;;21.87;47.85;101235.06;4994670;27;101622;-87
2022/10/07 10:44:45;;;;;;;8.30;4.13;;;;;;;21.67;47.74;101233.72;4992346;28;97160;-87
2022/10/07 10:47:55;;;;;;;9.10;4.60;;;;;;;20.84;48.53;101227.50;5003904;28;97002;-87
2022/10/07 10:50:31;;;;;;;8.75;3.85;;;;;;;20.65;49.74;101216.25;4985345;28;100278;-87
2022/10/07 10:53:23;;;;;;;9.27;3.60;;;;;;;20.78;49.34;101206.53;4995562;28;101402;-87
2022/10/07 10:55:48;;;;;;;10.18;3.50;;;;;;;20.56;50.35;101169.66;5004747;28;97989;-86
2022/10/07 10:58:32;;;;;;;9.57;3.95;;;;;;;20.65;49.71;101193.09;4992588;28;97221;-86
2022/10/07 11:01:23;;;;;;;8.38;4.00;;;;;;;20.45;50.51;101191.66;5027152;28;98503;-86
2022/10/07 11:03:53;;;;;;;11.98;4.10;;;;;;;20.13;51.28;101182.97;5002616;28;97945;-85
2022/10/07 11:06:19;;;;;;;10.07;4.40;;;;;;;20.16;51.63;101181.88;4987331;28;96824;-86
2022/10/07 11:08:46;;;;;;;7.93;4.72;;;;;;;20.07;51.46;101165.53;4975436;28;97245;-84
2022/10/07 11:11:17;;;;;;;6.70;4.22;;;;;;;19.64;52.32;101156.53;4970557;28;101106;-87
2022/10/07 11:13:49;;;;;;;10.77;3.88;;;;;;;19.72;52.55;101167.59;4979951;28;101410;-84
2022/10/07 11:16:26;;;;;;;9.50;4.68;;;;;;;19.66;53.10;101162.63;5010529;28;97111;-86
2022/10/07 11:18:59;;;;;;;7.30;3.90;;;;;;;19.64;53.23;101152.06;4980588;28;96821;-86
2022/10/07 11:21:43;;;;;;;7.35;4.40;;;;;;;19.55;53.60;101136.63;4981121;28;101559;-86
2022/10/07 11:24:25;;;;;;;9.38;4.35;;;;;;;19.31;53.96;101138.03;5012335;28;100181;-86
2022/10/07 11:27:09;;;;;;;10.52;4.80;;;;;;;19.38;54.26;101147.41;4994658;28;98473;-86
2022/10/07 11:30:02;;;;;;;5.47;4.30;;;;;;;19.19;54.39;101144.94;5000826;27;97944;-86
2022/10/07 11:32:37;;;;;;;9.00;4.60;;;;;;;19.15;54.34;101122.97;4997590;28;100387;-86
2022/10/07 11:35:42;;;;;;;11.55;4.30;;;;;;;19.32;55.02;101139.78;5000972;27;98096;-84
2022/10/07 11:38:14;;;;;;;10.82;5.45;;;;;;;19.00;55.37;101131.81;4988926;28;96804;-84
2022/10/07 11:40:51;;;;;;;11.18;4.85;;;;;;;18.87;55.68;101128.13;5009672;28;97223;-81
2022/10/07 11:43:28;;;;;;;9.40;5.47;;;;;;;18.98;55.63;101107.94;4997608;28;97634;-92
2022/10/07 11:46:02;;;;;;;7.95;5.13;;;;;;;19.21;55.38;101116.44;4999375;28;98043;-89